createdAt,value
2023-03-18T00:04:27.882Z,99802.13
2023-03-18T00:09:36.548Z,99800.13
2023-03-18T00:14:41.191Z,99799.31
2023-03-18T00:19:50.433Z,99797.66
2023-03-18T00:24:54.187Z,99806.75
2023-03-18T00:29:59.181Z,99793.97
2023-03-18T00:35:24.043Z,99800.03
2023-03-18T00:40:43.443Z,99799.63
2023-03-18T00:45:48.941Z,99794.56
2023-03-18T00:50:55.587Z,99800.91
2023-03-18T00:55:59.883Z,99800.22
2023-03-18T01:01:03.910Z,99799.81
2023-03-18T01:06:11.870Z,99793.06
2023-03-18T01:11:16.049Z,99801.50
2023-03-18T01:16:21.687Z,99797.09
2023-03-18T01:21:29.888Z,99788.13
2023-03-18T01:26:37.237Z,99793.19
2023-03-18T01:31:41.551Z,99792.41
2023-03-18T01:36:50.729Z,99782.34
2023-03-18T01:41:55.799Z,99786.91
2023-03-18T01:47:00.686Z,99786.25
2023-03-18T01:52:13.406Z,99788.00
2023-03-18T01:57:19.836Z,99791.75
2023-03-18T02:02:23.748Z,99789.97
2023-03-18T02:07:35.604Z,99796.03
2023-03-18T02:12:45.253Z,99791.75
2023-03-18T02:17:57.609Z,99794.38
2023-03-18T02:23:09.326Z,99790.25
2023-03-18T02:28:24.189Z,99794.94
2023-03-18T02:33:33.759Z,99807.50
2023-03-18T02:38:37.483Z,99797.34
2023-03-18T02:43:43.578Z,99807.94
2023-03-18T02:48:50.048Z,99817.72
2023-03-18T02:53:56.575Z,99817.47
2023-03-18T02:59:01.834Z,99819.53
2023-03-18T03:04:09.576Z,99823.69
2023-03-18T03:09:16.626Z,99826.84
2023-03-18T03:14:24.545Z,99822.88
2023-03-18T03:19:30.523Z,99830.19
2023-03-18T03:24:37.314Z,99837.31
2023-03-18T03:29:44.316Z,99846.00
2023-03-18T03:34:50.503Z,99840.09
2023-03-18T03:39:54.645Z,99838.44
2023-03-18T03:45:03.581Z,99839.25
2023-03-18T03:50:08.756Z,99845.47
2023-03-18T03:55:22.158Z,99851.66
2023-03-18T04:00:30.519Z,99850.84
2023-03-18T04:05:36.454Z,99851.94
2023-03-18T04:10:41.938Z,99858.25
2023-03-18T04:15:49.272Z,99862.00
2023-03-18T04:20:54.628Z,99864.06
2023-03-18T04:26:00.909Z,99867.63
2023-03-18T04:31:08.224Z,99863.22
2023-03-18T04:36:16.238Z,99862.41
2023-03-18T04:41:20.626Z,99867.63
2023-03-18T04:46:30.214Z,99859.50
2023-03-18T04:51:34.169Z,99871.63
2023-03-18T04:56:39.248Z,99869.97
2023-03-18T05:01:44.698Z,99863.66
2023-03-18T05:06:49.202Z,99875.47
2023-03-18T05:11:54.494Z,99889.38
2023-03-18T05:17:02.160Z,99881.94
2023-03-18T05:22:06.046Z,99878.63
2023-03-18T05:27:14.447Z,99873.25
2023-03-18T05:32:21.285Z,99871.59
2023-03-18T05:37:30.493Z,99869.00
2023-03-18T05:42:38.641Z,99875.06
2023-03-18T05:47:53.892Z,99876.56
2023-03-18T05:52:59.555Z,99877.09
2023-03-18T05:58:05.009Z,99883.84
2023-03-18T06:03:10.567Z,99883.28
2023-03-18T06:08:15.709Z,99892.09
2023-03-18T06:13:19.461Z,99898.94
2023-03-18T06:18:25.847Z,99907.75
2023-03-18T06:23:30.039Z,99903.31
2023-03-18T06:28:33.898Z,99891.97
2023-03-18T06:33:40.217Z,99896.97
2023-03-18T06:38:46.107Z,99911.25
2023-03-18T06:43:52.107Z,99917.56
2023-03-18T06:49:01.923Z,99915.94
2023-03-18T06:54:06.011Z,99915.88
2023-03-18T06:59:13.380Z,99919.91
2023-03-18T07:04:27.146Z,99930.19
2023-03-18T07:09:33.726Z,99931.31
2023-03-18T07:14:37.570Z,99948.38
2023-03-18T07:19:43.289Z,99955.25
2023-03-18T07:24:49.385Z,99949.88
2023-03-18T07:29:54.755Z,99939.78
2023-03-18T07:35:03.703Z,99938.47
2023-03-18T07:40:10.121Z,99950.28
2023-03-18T07:45:14.458Z,99949.31
2023-03-18T07:50:29.679Z,99948.13
2023-03-18T07:55:35.081Z,99967.66
2023-03-18T08:00:40.793Z,99967.88
2023-03-18T08:05:48.111Z,99964.59
2023-03-18T08:10:53.164Z,99974.72
2023-03-18T08:15:57.959Z,99987.22
2023-03-18T08:21:03.886Z,99987.53
2023-03-18T08:26:08.515Z,99991.59
2023-03-18T08:31:20.713Z,99990.47
2023-03-18T08:36:29.183Z,99998.34
2023-03-18T08:41:33.812Z,99994.75
2023-03-18T08:46:37.883Z,100003.59
2023-03-18T08:51:44.973Z,100001.59
2023-03-18T08:56:49.893Z,99991.91
2023-03-18T09:01:54.796Z,99996.59
2023-03-18T09:07:03.773Z,100001.06
2023-03-18T09:12:12.839Z,99997.59
2023-03-18T09:17:23.562Z,100001.69
2023-03-18T09:22:34.565Z,99995.16
2023-03-18T09:27:42.486Z,100002.13
2023-03-18T09:32:49.340Z,100002.47
2023-03-18T09:37:57.940Z,100005.63
2023-03-18T09:43:17.127Z,99993.31
2023-03-18T09:48:46.162Z,100007.59
2023-03-18T09:53:57.840Z,100013.72
2023-03-18T09:59:05.216Z,100001.34
2023-03-18T10:04:16.433Z,100006.06
2023-03-18T10:09:30.716Z,100004.06
2023-03-18T10:14:45.986Z,100007.81
2023-03-18T10:19:57.070Z,100003.75
2023-03-18T10:25:10.491Z,100010.97
2023-03-18T10:30:31.625Z,100005.97
2023-03-18T10:35:41.577Z,99993.03
2023-03-18T10:40:51.089Z,100008.25
2023-03-18T10:46:09.040Z,100002.16
2023-03-18T10:51:26.414Z,100013.31
2023-03-18T10:56:34.068Z,100014.06
2023-03-18T11:01:44.079Z,100013.16
2023-03-18T11:06:53.599Z,100007.38
2023-03-18T11:12:05.646Z,100015.19
2023-03-18T11:17:22.809Z,100013.38
2023-03-18T11:22:27.914Z,100009.75
2023-03-18T11:27:55.396Z,100002.31
2023-03-18T11:33:01.311Z,99999.22
2023-03-18T11:38:16.115Z,100005.38
2023-03-18T11:43:26.855Z,99995.09
2023-03-18T11:48:34.246Z,99989.34
2023-03-18T11:53:53.419Z,99989.88
2023-03-18T11:59:40.252Z,99985.94
2023-03-18T12:05:24.666Z,99985.97
2023-03-18T12:10:36.232Z,99985.66
2023-03-18T12:15:55.642Z,99993.84
2023-03-18T12:21:07.015Z,99986.47
2023-03-18T12:26:17.455Z,99992.84
2023-03-18T12:31:54.511Z,99983.63
2023-03-18T12:37:14.347Z,99979.25
2023-03-18T12:42:27.554Z,99976.78
2023-03-18T12:47:42.048Z,99978.06
2023-03-18T12:53:08.741Z,99970.66
2023-03-18T12:58:22.273Z,99980.41
2023-03-18T13:03:37.330Z,99969.00
2023-03-18T13:09:08.450Z,99979.19
2023-03-18T13:14:21.997Z,99965.13
2023-03-18T13:19:31.823Z,99959.81
2023-03-18T13:24:54.423Z,99957.97
2023-03-18T13:30:10.835Z,99965.75
2023-03-18T13:35:56.564Z,99963.06
2023-03-18T13:41:35.727Z,99954.25
2023-03-18T13:46:42.681Z,99954.66
2023-03-18T13:52:02.362Z,99944.44
2023-03-18T13:57:38.327Z,99943.53
2023-03-18T14:03:07.391Z,99946.81
2023-03-18T14:08:47.294Z,99934.59
2023-03-18T14:13:53.663Z,99930.56
2023-03-18T14:19:04.988Z,99933.75
2023-03-18T14:24:28.314Z,99943.72
2023-03-18T14:29:54.842Z,99937.16
2023-03-18T14:35:28.325Z,99931.84
2023-03-18T14:40:40.984Z,99926.94
2023-03-18T14:45:49.904Z,99928.31
2023-03-18T14:50:57.858Z,99933.59
2023-03-18T14:56:11.256Z,99928.66
2023-03-18T15:01:18.103Z,99925.34
2023-03-18T15:06:27.380Z,99920.00
2023-03-18T15:11:39.954Z,99915.91
2023-03-18T15:16:54.858Z,99920.56
2023-03-18T15:22:04.904Z,99923.31
2023-03-18T15:27:23.205Z,99917.00
2023-03-18T15:32:33.723Z,99922.31
2023-03-18T15:37:44.861Z,99920.69
2023-03-18T15:43:00.066Z,99921.94
2023-03-18T15:48:19.034Z,99926.41
2023-03-18T15:53:26.667Z,99921.69
2023-03-18T15:58:48.895Z,99924.66
2023-03-18T16:03:56.444Z,99928.63
2023-03-18T16:09:04.425Z,99926.13
2023-03-18T16:14:41.551Z,99931.38
2023-03-18T16:19:58.863Z,99931.69
2023-03-18T16:25:05.342Z,99932.34
2023-03-18T16:30:30.109Z,99931.47
2023-03-18T16:35:38.594Z,99940.91
2023-03-18T16:40:44.852Z,99944.47
2023-03-18T16:46:11.218Z,99947.44
2023-03-18T16:51:18.027Z,99947.94
2023-03-18T16:56:24.626Z,99949.81
2023-03-18T17:01:29.642Z,99944.97
2023-03-18T17:06:42.684Z,99949.72
2023-03-18T17:11:51.932Z,99962.78
2023-03-18T17:17:00.327Z,99968.88
2023-03-18T17:22:21.219Z,99965.50
2023-03-18T17:27:27.183Z,99965.94
2023-03-18T17:32:32.628Z,99977.75
2023-03-18T17:37:36.322Z,99980.00
2023-03-18T17:42:46.787Z,99986.16
2023-03-18T17:48:01.591Z,99977.63
2023-03-18T17:53:06.655Z,99980.69
2023-03-18T17:58:18.174Z,99978.94
2023-03-18T18:03:27.947Z,99980.81
2023-03-18T18:08:33.306Z,99988.13
2023-03-18T18:13:40.167Z,99981.91
2023-03-18T18:18:57.741Z,99982.78
2023-03-18T18:24:01.578Z,99976.72
2023-03-18T18:29:12.875Z,99983.84
2023-03-18T18:34:22.047Z,99983.88
2023-03-18T18:39:27.551Z,99984.88
2023-03-18T18:44:36.041Z,99992.66
2023-03-18T18:49:44.347Z,99995.00
2023-03-18T18:54:48.277Z,99991.03
2023-03-18T18:59:51.843Z,99991.72
2023-03-18T19:04:57.101Z,99997.50
2023-03-18T19:10:00.935Z,99991.25
2023-03-18T19:15:04.599Z,99997.22
2023-03-18T19:20:27.445Z,99990.59
2023-03-18T19:25:31.354Z,99987.66
2023-03-18T19:30:35.244Z,100000.19
2023-03-18T19:35:42.439Z,99993.78
2023-03-18T19:40:51.804Z,100002.66
2023-03-18T19:46:21.033Z,99994.13
2023-03-18T19:51:28.126Z,99993.94
2023-03-18T19:56:50.206Z,99999.06
2023-03-18T20:01:54.072Z,99991.00
2023-03-18T20:07:01.665Z,100007.31
2023-03-18T20:12:07.268Z,100012.72
2023-03-18T20:17:29.673Z,100017.47
2023-03-18T20:22:37.654Z,100026.34
2023-03-18T20:27:41.203Z,100019.25
2023-03-18T20:32:44.933Z,100017.09
2023-03-18T20:37:50.161Z,100036.50
2023-03-18T20:42:54.494Z,100025.44
2023-03-18T20:48:00.171Z,100036.09
2023-03-18T20:53:08.797Z,100032.59
2023-03-18T20:58:19.812Z,100036.19
2023-03-18T21:03:27.206Z,100028.25
2023-03-18T21:08:37.561Z,100036.25
2023-03-18T21:13:46.045Z,100038.88
2023-03-18T21:18:50.598Z,100038.94
2023-03-18T21:23:56.367Z,100049.56
2023-03-18T21:29:01.537Z,100052.66
2023-03-18T21:34:05.965Z,100049.00
2023-03-18T21:39:11.933Z,100044.34
2023-03-18T21:44:16.331Z,100045.78
2023-03-18T21:49:22.929Z,100040.63
2023-03-18T21:54:35.519Z,100038.31
2023-03-18T21:59:38.789Z,100048.78
2023-03-18T22:04:43.351Z,100036.09
2023-03-18T22:09:51.961Z,100040.81
2023-03-18T22:15:00.245Z,100038.81
2023-03-18T22:20:06.498Z,100038.56
2023-03-18T22:25:26.497Z,100041.81
2023-03-18T22:30:34.308Z,100048.19
2023-03-18T22:35:38.950Z,100042.94
2023-03-18T22:40:49.827Z,100037.16
2023-03-18T22:45:57.510Z,100038.44
2023-03-18T22:51:02.372Z,100041.66
2023-03-18T22:56:13.630Z,100046.06
2023-03-18T23:01:20.898Z,100051.75
2023-03-18T23:06:27.359Z,100047.97
2023-03-18T23:11:32.816Z,100051.69
2023-03-18T23:16:37.601Z,100054.63
2023-03-18T23:21:53.342Z,100055.72
2023-03-18T23:27:02.062Z,100053.09
2023-03-18T23:32:09.516Z,100045.63
2023-03-18T23:37:14.469Z,100045.28
2023-03-18T23:42:21.897Z,100045.56
2023-03-18T23:47:25.776Z,100050.28
2023-03-18T23:52:30.890Z,100048.94
2023-03-18T23:57:36.720Z,100049.91
